createdAt,value
2022-10-02T00:01:19.287Z,19.73
2022-10-02T00:03:48.145Z,19.85
2022-10-02T00:06:20.102Z,20.01
2022-10-02T00:08:48.459Z,20.02
2022-10-02T00:11:19.880Z,19.88
2022-10-02T00:13:49.438Z,19.96
2022-10-02T00:16:25.430Z,19.87
2022-10-02T00:18:57.308Z,19.87
2022-10-02T00:21:43.390Z,20.00
2022-10-02T00:24:17.327Z,19.97
2022-10-02T00:26:50.161Z,19.93
2022-10-02T00:29:27.955Z,20.04
2022-10-02T00:32:02.371Z,20.00
2022-10-02T00:34:33.973Z,20.09
2022-10-02T00:37:05.482Z,20.10
2022-10-02T00:39:45.042Z,20.03
2022-10-02T00:43:06.889Z,20.11
2022-10-02T00:46:00.673Z,20.09
2022-10-02T00:48:46.013Z,20.07
2022-10-02T00:51:19.460Z,19.88
2022-10-02T00:53:51.033Z,20.02
2022-10-02T00:56:23.146Z,19.95
2022-10-02T00:59:16.956Z,19.91
2022-10-02T01:01:47.621Z,19.92
2022-10-02T01:04:19.815Z,20.06
2022-10-02T01:06:48.214Z,20.08
2022-10-02T01:09:16.693Z,19.87
2022-10-02T01:11:45.141Z,19.88
2022-10-02T01:14:13.452Z,20.09
2022-10-02T01:16:42.387Z,20.11
2022-10-02T01:19:21.062Z,19.84
2022-10-02T01:21:52.277Z,20.09
2022-10-02T01:24:25.792Z,19.98
2022-10-02T01:26:55.546Z,20.04
2022-10-02T01:29:23.870Z,20.05
2022-10-02T01:31:52.266Z,19.83
2022-10-02T01:34:20.667Z,20.04
2022-10-02T01:36:49.027Z,19.83
2022-10-02T01:39:17.521Z,19.85
2022-10-02T01:41:45.802Z,19.93
2022-10-02T01:44:17.999Z,19.72
2022-10-02T01:46:49.805Z,19.99
2022-10-02T01:49:27.755Z,19.91
2022-10-02T01:52:04.215Z,19.82
2022-10-02T01:54:39.204Z,19.88
2022-10-02T01:57:11.592Z,19.91
2022-10-02T01:59:48.029Z,19.99
2022-10-02T02:02:23.159Z,19.97
2022-10-02T02:04:55.805Z,19.95
2022-10-02T02:07:28.846Z,19.96
2022-10-02T02:09:59.486Z,20.07
2022-10-02T02:12:29.634Z,19.86
2022-10-02T02:15:02.320Z,19.84
2022-10-02T02:17:32.885Z,20.05
2022-10-02T02:20:02.342Z,19.89
2022-10-02T02:22:31.541Z,20.02
2022-10-02T02:25:01.352Z,19.99
2022-10-02T02:27:31.297Z,20.13
2022-10-02T02:30:03.262Z,20.04
2022-10-02T02:32:33.467Z,20.24
2022-10-02T02:35:03.661Z,20.23
2022-10-02T02:37:33.466Z,20.01
2022-10-02T02:40:03.304Z,20.13
2022-10-02T02:42:32.410Z,20.12
2022-10-02T02:45:04.404Z,20.07
2022-10-02T02:47:35.819Z,20.13
2022-10-02T02:50:06.226Z,20.21
2022-10-02T02:52:37.621Z,20.20
2022-10-02T02:55:07.741Z,20.18
2022-10-02T02:57:38.531Z,20.18
2022-10-02T03:00:09.173Z,20.19
2022-10-02T03:02:37.655Z,20.14
2022-10-02T03:05:12.637Z,20.09
2022-10-02T03:07:41.247Z,20.08
2022-10-02T03:10:17.426Z,20.15
2022-10-02T03:12:52.336Z,19.92
2022-10-02T03:15:27.885Z,20.05
2022-10-02T03:18:02.812Z,19.99
2022-10-02T03:20:34.616Z,19.89
2022-10-02T03:23:09.867Z,19.95
2022-10-02T03:25:41.216Z,20.06
2022-10-02T03:28:11.591Z,19.89
2022-10-02T03:30:45.043Z,19.89
2022-10-02T03:33:14.529Z,19.82
2022-10-02T03:35:42.995Z,19.88
2022-10-02T03:38:12.486Z,19.89
2022-10-02T03:40:40.998Z,19.79
2022-10-02T03:43:09.427Z,19.75
2022-10-02T03:45:51.047Z,19.81
2022-10-02T03:48:21.708Z,19.70
2022-10-02T03:50:51.212Z,19.83
2022-10-02T03:53:21.281Z,19.77
2022-10-02T03:55:53.774Z,19.71
2022-10-02T03:58:23.214Z,19.81
2022-10-02T04:00:55.777Z,19.76
2022-10-02T04:03:27.173Z,19.70
2022-10-02T04:06:00.482Z,19.75
2022-10-02T04:08:30.502Z,19.74
2022-10-02T04:11:03.344Z,19.94
2022-10-02T04:13:34.013Z,19.91
2022-10-02T04:16:14.828Z,19.95
2022-10-02T04:18:49.568Z,19.87
2022-10-02T04:21:25.518Z,19.71
2022-10-02T04:23:55.622Z,19.59
2022-10-02T04:26:26.188Z,19.53
2022-10-02T04:28:56.987Z,19.54
2022-10-02T04:31:27.526Z,19.54
2022-10-02T04:33:58.089Z,19.58
2022-10-02T04:36:32.383Z,19.37
2022-10-02T04:39:34.918Z,19.41
2022-10-02T04:42:19.589Z,19.51
2022-10-02T04:44:56.385Z,19.25
2022-10-02T04:47:52.239Z,19.38
2022-10-02T04:50:35.850Z,19.19
2022-10-02T04:53:15.409Z,19.14
2022-10-02T04:56:14.282Z,19.18
2022-10-02T04:59:08.225Z,18.83
2022-10-02T05:01:48.115Z,18.91
2022-10-02T05:04:28.164Z,18.78
2022-10-02T05:07:14.785Z,18.65
2022-10-02T05:09:46.226Z,18.67
2022-10-02T05:12:38.237Z,18.59
2022-10-02T05:15:21.952Z,18.46
2022-10-02T05:18:07.890Z,18.61
2022-10-02T05:21:07.593Z,18.37
2022-10-02T05:23:51.371Z,18.26
2022-10-02T05:26:32.971Z,18.45
2022-10-02T05:29:15.099Z,18.27
2022-10-02T05:31:52.066Z,18.30
2022-10-02T05:34:31.336Z,18.01
2022-10-02T05:37:14.357Z,18.02
2022-10-02T05:39:46.772Z,18.02
2022-10-02T05:42:20.828Z,18.02
2022-10-02T05:44:51.248Z,18.04
2022-10-02T05:47:20.920Z,17.77
2022-10-02T05:49:52.730Z,18.00
2022-10-02T05:52:22.864Z,17.80
2022-10-02T05:55:13.678Z,17.95
2022-10-02T05:58:22.334Z,17.98
2022-10-02T06:01:15.039Z,17.80
2022-10-02T06:03:57.690Z,17.72
2022-10-02T06:06:37.524Z,17.86
2022-10-02T06:09:20.391Z,17.68
2022-10-02T06:12:12.540Z,17.62
2022-10-02T06:14:56.938Z,17.83
2022-10-02T06:17:56.509Z,17.83
2022-10-02T06:21:24.690Z,17.91
2022-10-02T06:24:50.194Z,17.97
2022-10-02T06:27:48.552Z,17.89
2022-10-02T06:30:52.232Z,17.79
2022-10-02T06:33:52.631Z,17.76
2022-10-02T06:37:27.313Z,17.92
2022-10-02T06:40:49.613Z,17.97
2022-10-02T06:44:13.667Z,18.05
2022-10-02T06:47:17.585Z,17.90
2022-10-02T06:50:02.710Z,18.03
2022-10-02T06:52:58.132Z,18.06
2022-10-02T06:55:52.907Z,18.06
2022-10-02T06:59:21.257Z,18.16
2022-10-02T07:02:24.550Z,18.16
2022-10-02T07:05:16.663Z,18.09
2022-10-02T07:07:49.939Z,17.94
2022-10-02T07:10:33.207Z,17.87
2022-10-02T07:13:26.444Z,18.07
2022-10-02T07:16:22.712Z,18.11
2022-10-02T07:19:06.225Z,18.07
2022-10-02T07:21:41.693Z,18.11
2022-10-02T07:24:20.086Z,18.18
2022-10-02T07:26:50.580Z,18.16
2022-10-02T07:29:28.741Z,18.07
2022-10-02T07:32:11.074Z,18.18
2022-10-02T07:34:43.535Z,18.06
2022-10-02T07:37:18.151Z,18.14
2022-10-02T07:39:54.502Z,18.17
2022-10-02T07:42:44.188Z,18.06
2022-10-02T07:45:27.864Z,18.26
2022-10-02T07:48:09.672Z,18.08
2022-10-02T07:50:42.403Z,18.22
2022-10-02T07:53:14.397Z,18.22
2022-10-02T07:55:43.158Z,18.23
2022-10-02T07:58:13.151Z,18.14
2022-10-02T08:00:44.894Z,18.39
2022-10-02T08:03:14.588Z,18.41
2022-10-02T08:05:45.789Z,18.29
2022-10-02T08:08:22.252Z,18.40
2022-10-02T08:10:53.264Z,18.32
2022-10-02T08:13:23.804Z,18.42
2022-10-02T08:15:54.551Z,18.48
2022-10-02T08:18:35.010Z,18.26
2022-10-02T08:21:06.213Z,18.45
2022-10-02T08:23:37.770Z,18.48
2022-10-02T08:26:08.378Z,18.45
2022-10-02T08:28:39.023Z,18.32
2022-10-02T08:31:11.119Z,18.61
2022-10-02T08:33:39.515Z,18.68
2022-10-02T08:36:40.268Z,18.74
2022-10-02T08:39:30.304Z,19.00
2022-10-02T08:42:46.772Z,19.03
2022-10-02T08:45:38.953Z,18.85
2022-10-02T08:48:34.978Z,19.09
2022-10-02T08:54:50.126Z,19.11
2022-10-02T08:57:35.858Z,19.24
2022-10-02T09:00:10.534Z,19.28
2022-10-02T09:06:42.038Z,19.88
2022-10-02T09:09:34.033Z,20.01
2022-10-02T09:12:33.179Z,20.17
2022-10-02T09:15:10.114Z,20.30
2022-10-02T09:17:49.616Z,20.49
2022-10-02T09:20:57.051Z,20.55
2022-10-02T09:24:00.584Z,20.60
2022-10-02T09:26:45.263Z,20.69
2022-10-02T09:29:41.582Z,20.72
2022-10-02T09:33:06.579Z,20.92
2022-10-02T09:36:25.173Z,21.11
2022-10-02T09:39:14.644Z,21.41
2022-10-02T09:42:21.193Z,21.78
2022-10-02T09:45:19.840Z,21.72
2022-10-02T09:48:08.800Z,21.54
2022-10-02T09:51:10.703Z,21.24
2022-10-02T09:54:04.936Z,21.10
2022-10-02T09:57:02.325Z,21.02
2022-10-02T10:00:06.760Z,21.16
2022-10-02T10:03:17.080Z,21.40
2022-10-02T10:05:53.466Z,21.66
2022-10-02T10:08:51.803Z,21.85
2022-10-02T10:11:48.947Z,21.97
2022-10-02T10:14:37.402Z,22.04
2022-10-02T10:17:48.445Z,22.18
2022-10-02T10:21:03.493Z,22.14
2022-10-02T10:23:57.725Z,21.86
2022-10-02T10:27:11.087Z,21.74
2022-10-02T10:30:33.671Z,21.60
2022-10-02T10:33:28.318Z,21.93
2022-10-02T10:36:45.916Z,22.49
2022-10-02T10:39:33.493Z,22.96
2022-10-02T10:42:27.990Z,23.23
2022-10-02T10:45:20.089Z,23.48
2022-10-02T10:48:16.395Z,23.59
2022-10-02T10:50:50.570Z,23.61
2022-10-02T10:53:30.918Z,24.06
2022-10-02T10:56:12.714Z,24.10
2022-10-02T10:58:52.898Z,24.13
2022-10-02T11:01:21.595Z,24.11
2022-10-02T11:04:19.323Z,24.28
2022-10-02T11:07:02.055Z,24.52
2022-10-02T11:09:53.672Z,24.31
2022-10-02T11:12:41.311Z,24.28
2022-10-02T11:15:24.607Z,24.48
2022-10-02T11:18:11.820Z,24.52
2022-10-02T11:20:56.186Z,24.67
2022-10-02T11:23:51.373Z,24.71
2022-10-02T11:26:27.859Z,24.98
2022-10-02T11:29:39.225Z,25.35
2022-10-02T11:32:28.120Z,25.12
2022-10-02T11:35:19.517Z,24.81
2022-10-02T11:38:03.861Z,24.75
2022-10-02T11:40:39.908Z,24.72
2022-10-02T11:43:46.795Z,24.46
2022-10-02T11:46:28.354Z,24.10
2022-10-02T11:49:25.253Z,24.48
2022-10-02T11:52:19.613Z,24.75
2022-10-02T11:54:56.329Z,24.49
2022-10-02T11:57:32.448Z,24.73
2022-10-02T12:00:14.168Z,24.89
2022-10-02T12:02:47.999Z,25.10
2022-10-02T12:05:24.162Z,25.35
2022-10-02T12:07:58.637Z,25.70
2022-10-02T12:10:39.604Z,25.99
2022-10-02T12:13:20.697Z,26.25
2022-10-02T12:15:52.045Z,25.97
2022-10-02T12:18:31.890Z,26.07
2022-10-02T12:21:28.064Z,26.15
2022-10-02T12:24:15.256Z,26.10
2022-10-02T12:27:09.833Z,26.19
2022-10-02T12:30:02.666Z,26.28
2022-10-02T12:32:53.166Z,26.32
2022-10-02T12:35:32.675Z,26.43
2022-10-02T12:38:07.082Z,26.73
2022-10-02T12:40:49.767Z,26.86
2022-10-02T12:43:57.159Z,27.04
2022-10-02T12:46:41.679Z,27.20
2022-10-02T12:49:15.552Z,27.38
2022-10-02T12:51:55.052Z,27.48
2022-10-02T12:55:09.047Z,27.65
2022-10-02T12:58:01.137Z,27.64
2022-10-02T13:00:32.474Z,27.40
2022-10-02T13:03:28.511Z,27.47
2022-10-02T13:06:14.928Z,27.74
2022-10-02T13:09:03.163Z,27.88
2022-10-02T13:11:37.713Z,27.93
2022-10-02T13:14:32.491Z,28.06
2022-10-02T13:17:15.702Z,27.98
2022-10-02T13:19:50.236Z,27.63
2022-10-02T13:22:20.468Z,27.68
2022-10-02T13:24:57.434Z,27.64
2022-10-02T13:27:31.639Z,27.71
2022-10-02T13:30:06.935Z,27.76
2022-10-02T13:33:06.010Z,28.09
2022-10-02T13:35:44.437Z,28.35
2022-10-02T13:38:22.890Z,28.37
2022-10-02T13:40:55.585Z,28.18
2022-10-02T13:43:42.423Z,28.03
2022-10-02T13:46:17.367Z,27.21
2022-10-02T13:48:55.065Z,26.58
2022-10-02T13:51:26.663Z,26.76
2022-10-02T13:54:22.021Z,26.73
2022-10-02T13:56:55.631Z,26.75
2022-10-02T13:59:41.436Z,27.19
2022-10-02T14:02:18.281Z,27.03
2022-10-02T14:04:55.408Z,27.09
2022-10-02T14:07:38.194Z,27.11
2022-10-02T14:10:11.990Z,27.15
2022-10-02T14:12:48.158Z,27.28
2022-10-02T14:15:26.351Z,27.36
2022-10-02T14:18:18.295Z,27.58
2022-10-02T14:20:49.307Z,27.55
2022-10-02T14:23:32.890Z,27.26
2022-10-02T14:26:07.496Z,27.34
2022-10-02T14:29:09.234Z,27.58
2022-10-02T14:31:55.151Z,27.57
2022-10-02T14:34:40.710Z,27.39
2022-10-02T14:37:43.883Z,27.37
2022-10-02T14:40:13.933Z,27.20
2022-10-02T14:42:54.030Z,27.28
2022-10-02T14:45:58.187Z,27.44
2022-10-02T14:48:46.105Z,27.48
2022-10-02T14:51:22.141Z,27.66
2022-10-02T14:53:58.535Z,27.46
2022-10-02T14:57:00.288Z,27.30
2022-10-02T14:59:54.810Z,26.72
2022-10-02T15:02:31.530Z,26.12
2022-10-02T15:05:04.749Z,25.47
2022-10-02T15:07:32.871Z,25.01
2022-10-02T15:10:03.965Z,24.63
2022-10-02T15:12:43.626Z,24.29
2022-10-02T15:15:13.350Z,23.95
2022-10-02T15:18:00.129Z,23.76
2022-10-02T15:20:35.229Z,23.54
2022-10-02T15:23:07.345Z,23.46
2022-10-02T15:25:53.058Z,23.54
2022-10-02T15:28:36.329Z,23.66
2022-10-02T15:31:10.289Z,24.25
2022-10-02T15:33:39.075Z,24.42
2022-10-02T15:36:38.210Z,24.76
2022-10-02T15:39:25.063Z,25.39
2022-10-02T15:42:04.206Z,25.83
2022-10-02T15:45:01.348Z,26.38
2022-10-02T15:47:38.308Z,26.79
2022-10-02T15:50:16.028Z,27.10
2022-10-02T15:52:49.890Z,26.99
2022-10-02T15:55:21.900Z,26.93
2022-10-02T15:57:56.922Z,27.13
2022-10-02T16:00:26.242Z,27.20
2022-10-02T16:03:13.890Z,27.50
2022-10-02T16:05:50.263Z,27.36
2022-10-02T16:08:33.357Z,27.36
2022-10-02T16:11:27.459Z,27.30
2022-10-02T16:13:59.306Z,27.13
2022-10-02T16:17:02.373Z,27.25
2022-10-02T16:19:38.103Z,27.16
2022-10-02T16:22:18.051Z,27.17
2022-10-02T16:24:54.336Z,27.16
2022-10-02T16:27:30.190Z,27.20
2022-10-02T16:30:07.793Z,27.31
2022-10-02T16:32:40.763Z,27.31
2022-10-02T16:35:25.133Z,27.29
2022-10-02T16:38:00.008Z,27.26
2022-10-02T16:40:33.625Z,27.45
2022-10-02T16:43:32.049Z,27.41
2022-10-02T16:46:06.940Z,27.43
2022-10-02T16:48:42.322Z,27.45
2022-10-02T16:51:15.999Z,27.57
2022-10-02T16:53:46.323Z,27.72
2022-10-02T16:56:18.265Z,27.76
2022-10-02T16:58:49.300Z,27.84
2022-10-02T17:01:26.184Z,27.66
2022-10-02T17:04:10.956Z,27.40
2022-10-02T17:06:41.170Z,26.90
2022-10-02T17:09:14.457Z,26.61
2022-10-02T17:11:48.513Z,26.21
2022-10-02T17:14:19.391Z,25.85
2022-10-02T17:16:53.376Z,25.53
2022-10-02T17:19:24.108Z,24.95
2022-10-02T17:21:53.783Z,24.71
2022-10-02T17:24:26.809Z,24.20
2022-10-02T17:27:02.158Z,23.74
2022-10-02T17:29:35.582Z,23.47
2022-10-02T17:32:05.569Z,23.20
2022-10-02T17:34:34.369Z,22.75
2022-10-02T17:37:07.120Z,22.53
2022-10-02T17:40:02.609Z,22.09
2022-10-02T17:42:41.571Z,21.81
2022-10-02T17:45:19.268Z,21.67
2022-10-02T17:47:55.572Z,21.50
2022-10-02T17:50:47.684Z,21.36
2022-10-02T17:53:40.975Z,21.17
2022-10-02T17:56:29.653Z,20.92
2022-10-02T17:59:07.152Z,20.90
2022-10-02T18:01:38.910Z,20.59
2022-10-02T18:04:11.070Z,20.68
2022-10-02T18:06:42.025Z,20.56
2022-10-02T18:09:37.159Z,20.39
2022-10-02T18:12:27.203Z,20.20
2022-10-02T18:15:17.622Z,20.07
2022-10-02T18:17:52.987Z,19.92
2022-10-02T18:20:26.197Z,19.79
2022-10-02T18:23:01.131Z,19.67
2022-10-02T18:25:42.830Z,19.56
2022-10-02T18:28:26.464Z,19.45
2022-10-02T18:30:59.681Z,19.33
2022-10-02T18:33:38.333Z,19.28
2022-10-02T18:36:21.653Z,19.22
2022-10-02T18:38:56.916Z,18.91
2022-10-02T18:41:36.257Z,19.00
2022-10-02T18:44:11.525Z,18.92
2022-10-02T18:46:47.235Z,18.88
2022-10-02T18:49:28.111Z,18.82
2022-10-02T18:52:09.287Z,18.73
2022-10-02T18:54:42.977Z,18.67
2022-10-02T18:57:24.410Z,18.63
2022-10-02T18:59:58.187Z,18.58
2022-10-02T19:02:36.857Z,18.55
2022-10-02T19:05:16.817Z,18.36
2022-10-02T19:07:46.455Z,18.32
2022-10-02T19:10:27.215Z,18.38
2022-10-02T19:12:57.250Z,18.32
2022-10-02T19:15:27.802Z,18.31
2022-10-02T19:18:01.467Z,18.28
2022-10-02T19:20:36.712Z,18.15
2022-10-02T19:23:05.192Z,18.15
2022-10-02T19:25:33.259Z,17.96
2022-10-02T19:28:01.703Z,17.90
2022-10-02T19:30:31.436Z,17.75
2022-10-02T19:33:03.328Z,17.93
2022-10-02T19:35:32.605Z,17.90
2022-10-02T19:38:08.163Z,17.79
2022-10-02T19:40:36.851Z,17.81
2022-10-02T19:43:07.144Z,17.85
2022-10-02T19:45:35.485Z,17.82
2022-10-02T19:48:05.959Z,17.80
2022-10-02T19:50:39.854Z,17.80
2022-10-02T19:53:08.350Z,17.78
2022-10-02T19:55:38.630Z,17.75
2022-10-02T19:58:08.789Z,17.55
2022-10-02T20:00:38.638Z,17.74
2022-10-02T20:03:10.211Z,17.67
2022-10-02T20:05:38.262Z,17.49
2022-10-02T20:08:08.452Z,17.52
2022-10-02T20:10:38.057Z,17.52
2022-10-02T20:13:08.508Z,17.49
2022-10-02T20:15:58.067Z,17.46
2022-10-02T20:18:28.746Z,17.37
2022-10-02T20:21:03.527Z,17.29
2022-10-02T20:23:31.815Z,17.20
2022-10-02T20:25:59.982Z,17.27
2022-10-02T20:28:29.553Z,17.17
2022-10-02T20:31:01.583Z,17.21
2022-10-02T20:33:33.684Z,17.18
2022-10-02T20:36:03.291Z,17.18
2022-10-02T20:38:32.727Z,16.98
2022-10-02T20:41:02.138Z,17.07
2022-10-02T20:43:32.896Z,17.04
2022-10-02T20:46:14.863Z,17.01
2022-10-02T20:49:07.914Z,16.91
2022-10-02T20:51:53.377Z,16.94
2022-10-02T20:54:36.870Z,16.75
2022-10-02T20:57:38.226Z,16.89
2022-10-02T21:00:17.293Z,16.90
2022-10-02T21:03:17.551Z,16.88
2022-10-02T21:06:28.948Z,16.93
2022-10-02T21:09:29.477Z,16.90
2022-10-02T21:12:15.880Z,16.87
2022-10-02T21:14:54.892Z,16.88
2022-10-02T21:17:57.058Z,16.90
2022-10-02T21:21:03.428Z,16.83
2022-10-02T21:24:01.428Z,16.82
2022-10-02T21:27:00.894Z,16.82
2022-10-02T21:29:41.316Z,16.85
2022-10-02T21:32:31.029Z,16.85
2022-10-02T21:35:31.362Z,16.94
2022-10-02T21:38:06.202Z,16.82
2022-10-02T21:41:15.622Z,16.98
2022-10-02T21:44:22.528Z,17.00
2022-10-02T21:47:18.825Z,17.02
2022-10-02T21:50:19.838Z,17.05
2022-10-02T21:53:12.130Z,17.06
2022-10-02T21:56:05.554Z,17.05
2022-10-02T21:59:12.781Z,17.04
2022-10-02T22:02:08.819Z,16.89
2022-10-02T22:05:11.488Z,16.95
2022-10-02T22:07:44.105Z,16.84
2022-10-02T22:10:15.224Z,16.97
2022-10-02T22:12:48.932Z,16.94
2022-10-02T22:15:19.305Z,17.00
2022-10-02T22:17:57.734Z,16.81
2022-10-02T22:21:04.257Z,16.85
2022-10-02T22:23:41.053Z,16.71
2022-10-02T22:26:14.923Z,16.65
2022-10-02T22:28:44.940Z,16.52
2022-10-02T22:31:42.290Z,16.60
2022-10-02T22:34:21.731Z,16.49
2022-10-02T22:37:08.107Z,16.48
2022-10-02T22:39:38.941Z,16.50
2022-10-02T22:42:08.883Z,16.57
2022-10-02T22:44:38.252Z,16.55
2022-10-02T22:47:08.740Z,16.42
2022-10-02T22:49:39.558Z,16.48
2022-10-02T22:52:10.284Z,16.49
2022-10-02T22:54:44.136Z,16.47
2022-10-02T22:57:16.198Z,16.51
2022-10-02T22:59:47.202Z,16.44
2022-10-02T23:02:17.384Z,16.55
2022-10-02T23:04:49.683Z,16.48
2022-10-02T23:07:18.725Z,16.39
2022-10-02T23:09:49.966Z,16.18
2022-10-02T23:12:25.417Z,16.29
2022-10-02T23:15:01.827Z,16.24
2022-10-02T23:17:32.919Z,16.19
2022-10-02T23:20:04.855Z,16.07
2022-10-02T23:22:34.624Z,16.14
2022-10-02T23:25:05.708Z,15.92
2022-10-02T23:27:39.418Z,16.06
2022-10-02T23:30:10.846Z,16.04
2022-10-02T23:32:41.382Z,15.98
2022-10-02T23:35:14.143Z,15.83
2022-10-02T23:37:45.913Z,15.91
2022-10-02T23:40:43.947Z,15.93
2022-10-02T23:43:12.516Z,15.87
2022-10-02T23:45:42.845Z,15.85
2022-10-02T23:48:11.935Z,15.70
2022-10-02T23:50:44.280Z,15.78
2022-10-02T23:53:36.723Z,15.75
2022-10-02T23:56:13.158Z,15.61
2022-10-02T23:59:07.811Z,15.69
